sensor_id;sensor_type;location;lat;lon;timestamp;pressure;altitude;pressure_sealevel;temperature;humidity
62948;BME280;51940;52.126;-0.994;2022-07-29T00:02:08;100832.48;;;16.36;57.15
62948;BME280;51940;52.126;-0.994;2022-07-29T00:04:35;100832.41;;;16.34;57.17
62948;BME280;51940;52.126;-0.994;2022-07-29T00:07:00;100830.19;;;16.30;57.33
62948;BME280;51940;52.126;-0.994;2022-07-29T00:09:26;100831.73;;;16.28;57.37
62948;BME280;51940;52.126;-0.994;2022-07-29T00:11:53;100826.73;;;16.27;57.37
62948;BME280;51940;52.126;-0.994;2022-07-29T00:14:18;100828.11;;;16.24;57.53
62948;BME280;51940;52.126;-0.994;2022-07-29T00:16:44;100830.13;;;16.23;57.49
62948;BME280;51940;52.126;-0.994;2022-07-29T00:19:09;100833.75;;;16.22;57.73
62948;BME280;51940;52.126;-0.994;2022-07-29T00:21:35;100828.98;;;16.21;57.77
62948;BME280;51940;52.126;-0.994;2022-07-29T00:24:00;100830.35;;;16.18;57.96
62948;BME280;51940;52.126;-0.994;2022-07-29T00:26:26;100829.60;;;16.14;57.95
62948;BME280;51940;52.126;-0.994;2022-07-29T00:28:57;100825.83;;;16.10;58.27
62948;BME280;51940;52.126;-0.994;2022-07-29T00:31:23;100825.96;;;16.06;58.29
62948;BME280;51940;52.126;-0.994;2022-07-29T00:33:48;100827.15;;;16.03;58.24
62948;BME280;51940;52.126;-0.994;2022-07-29T00:36:14;100827.19;;;16.03;58.38
62948;BME280;51940;52.126;-0.994;2022-07-29T00:38:39;100830.77;;;16.02;58.40
62948;BME280;51940;52.126;-0.994;2022-07-29T00:41:06;100829.36;;;16.02;58.55
62948;BME280;51940;52.126;-0.994;2022-07-29T00:43:32;100828.95;;;15.99;58.84
62948;BME280;51940;52.126;-0.994;2022-07-29T00:45:57;100826.30;;;15.94;59.06
62948;BME280;51940;52.126;-0.994;2022-07-29T00:48:23;100822.80;;;15.91;59.06
62948;BME280;51940;52.126;-0.994;2022-07-29T00:50:49;100817.39;;;15.87;59.37
62948;BME280;51940;52.126;-0.994;2022-07-29T00:53:15;100813.05;;;15.83;59.52
62948;BME280;51940;52.126;-0.994;2022-07-29T00:55:40;100810.58;;;15.82;59.51
62948;BME280;51940;52.126;-0.994;2022-07-29T00:58:06;100813.50;;;15.79;59.77
62948;BME280;51940;52.126;-0.994;2022-07-29T01:00:31;100812.95;;;15.75;59.96
62948;BME280;51940;52.126;-0.994;2022-07-29T01:02:57;100814.00;;;15.72;60.17
62948;BME280;51940;52.126;-0.994;2022-07-29T01:05:24;100808.99;;;15.66;60.40
62948;BME280;51940;52.126;-0.994;2022-07-29T01:07:53;100811.38;;;15.60;60.76
62948;BME280;51940;52.126;-0.994;2022-07-29T01:10:20;100816.45;;;15.54;61.10
62948;BME280;51940;52.126;-0.994;2022-07-29T01:12:48;100815.65;;;15.46;61.49
62948;BME280;51940;52.126;-0.994;2022-07-29T01:15:14;100819.34;;;15.44;61.60
62948;BME280;51940;52.126;-0.994;2022-07-29T01:17:44;100815.60;;;15.43;61.80
62948;BME280;51940;52.126;-0.994;2022-07-29T01:21:13;100816.64;;;15.39;62.01
62948;BME280;51940;52.126;-0.994;2022-07-29T01:30:44;100812.46;;;15.41;62.59
62948;BME280;51940;52.126;-0.994;2022-07-29T01:33:13;100813.34;;;15.41;62.73
62948;BME280;51940;52.126;-0.994;2022-07-29T01:36:07;100812.91;;;15.43;62.77
62948;BME280;51940;52.126;-0.994;2022-07-29T01:38:38;100813.83;;;15.42;62.74
62948;BME280;51940;52.126;-0.994;2022-07-29T01:41:12;100812.02;;;15.38;62.94
62948;BME280;51940;52.126;-0.994;2022-07-29T01:43:53;100813.63;;;15.38;62.97
62948;BME280;51940;52.126;-0.994;2022-07-29T01:46:31;100809.55;;;15.41;63.22
62948;BME280;51940;52.126;-0.994;2022-07-29T01:49:13;100810.82;;;15.41;63.14
62948;BME280;51940;52.126;-0.994;2022-07-29T01:51:46;100812.21;;;15.37;63.40
62948;BME280;51940;52.126;-0.994;2022-07-29T01:56:43;100816.71;;;15.32;63.61
62948;BME280;51940;52.126;-0.994;2022-07-29T01:59:10;100814.48;;;15.30;63.75
62948;BME280;51940;52.126;-0.994;2022-07-29T02:01:39;100815.48;;;15.27;63.92
62948;BME280;51940;52.126;-0.994;2022-07-29T02:04:12;100814.27;;;15.26;63.91
62948;BME280;51940;52.126;-0.994;2022-07-29T02:06:40;100816.03;;;15.27;64.12
62948;BME280;51940;52.126;-0.994;2022-07-29T02:09:09;100814.13;;;15.25;64.35
62948;BME280;51940;52.126;-0.994;2022-07-29T02:11:37;100812.48;;;15.20;64.47
62948;BME280;51940;52.126;-0.994;2022-07-29T02:14:05;100815.92;;;15.19;64.61
62948;BME280;51940;52.126;-0.994;2022-07-29T02:16:33;100814.17;;;15.18;64.69
62948;BME280;51940;52.126;-0.994;2022-07-29T02:19:02;100814.86;;;15.14;64.82
62948;BME280;51940;52.126;-0.994;2022-07-29T02:21:29;100815.38;;;15.10;64.98
62948;BME280;51940;52.126;-0.994;2022-07-29T02:23:59;100819.81;;;15.11;64.99
62948;BME280;51940;52.126;-0.994;2022-07-29T02:26:27;100817.48;;;15.11;64.88
62948;BME280;51940;52.126;-0.994;2022-07-29T02:28:55;100818.66;;;15.14;64.81
62948;BME280;51940;52.126;-0.994;2022-07-29T02:31:25;100816.95;;;15.16;64.84
62948;BME280;51940;52.126;-0.994;2022-07-29T02:33:52;100816.75;;;15.12;65.11
62948;BME280;51940;52.126;-0.994;2022-07-29T02:36:21;100812.42;;;15.08;65.23
62948;BME280;51940;52.126;-0.994;2022-07-29T02:38:48;100815.91;;;15.05;65.36
62948;BME280;51940;52.126;-0.994;2022-07-29T02:41:20;100819.96;;;15.02;65.53
62948;BME280;51940;52.126;-0.994;2022-07-29T02:43:50;100820.45;;;14.93;65.74
62948;BME280;51940;52.126;-0.994;2022-07-29T02:46:23;100818.07;;;14.90;65.85
62948;BME280;51940;52.126;-0.994;2022-07-29T02:49:07;100815.50;;;14.91;65.75
62948;BME280;51940;52.126;-0.994;2022-07-29T02:51:49;100812.52;;;14.94;65.72
62948;BME280;51940;52.126;-0.994;2022-07-29T02:54:44;100808.84;;;14.92;65.90
62948;BME280;51940;52.126;-0.994;2022-07-29T02:57:20;100808.77;;;14.89;66.38
62948;BME280;51940;52.126;-0.994;2022-07-29T02:59:50;100804.81;;;14.89;66.38
62948;BME280;51940;52.126;-0.994;2022-07-29T03:02:17;100801.81;;;14.88;66.40
62948;BME280;51940;52.126;-0.994;2022-07-29T03:04:44;100800.95;;;14.87;66.48
62948;BME280;51940;52.126;-0.994;2022-07-29T03:07:13;100800.15;;;14.84;66.59
62948;BME280;51940;52.126;-0.994;2022-07-29T03:09:41;100804.30;;;14.78;66.88
62948;BME280;51940;52.126;-0.994;2022-07-29T03:12:08;100803.58;;;14.73;67.05
62948;BME280;51940;52.126;-0.994;2022-07-29T03:14:34;100804.52;;;14.72;67.09
62948;BME280;51940;52.126;-0.994;2022-07-29T03:17:00;100805.44;;;14.72;67.28
62948;BME280;51940;52.126;-0.994;2022-07-29T03:19:26;100802.83;;;14.68;67.30
62948;BME280;51940;52.126;-0.994;2022-07-29T03:21:56;100804.96;;;14.69;67.44
62948;BME280;51940;52.126;-0.994;2022-07-29T03:24:36;100804.14;;;14.67;67.53
62948;BME280;51940;52.126;-0.994;2022-07-29T03:27:03;100804.20;;;14.65;67.50
62948;BME280;51940;52.126;-0.994;2022-07-29T03:29:29;100805.90;;;14.63;67.68
62948;BME280;51940;52.126;-0.994;2022-07-29T03:31:55;100805.43;;;14.61;67.99
62948;BME280;51940;52.126;-0.994;2022-07-29T03:34:21;100804.27;;;14.58;68.04
62948;BME280;51940;52.126;-0.994;2022-07-29T03:36:47;100809.02;;;14.55;68.16
62948;BME280;51940;52.126;-0.994;2022-07-29T03:39:17;100810.89;;;14.54;68.14
62948;BME280;51940;52.126;-0.994;2022-07-29T03:41:45;100811.68;;;14.51;68.36
62948;BME280;51940;52.126;-0.994;2022-07-29T03:44:13;100811.90;;;14.44;68.49
62948;BME280;51940;52.126;-0.994;2022-07-29T03:46:41;100811.88;;;14.39;68.70
62948;BME280;51940;52.126;-0.994;2022-07-29T03:49:08;100816.60;;;14.37;68.70
62948;BME280;51940;52.126;-0.994;2022-07-29T03:51:36;100819.42;;;14.33;69.07
62948;BME280;51940;52.126;-0.994;2022-07-29T03:54:03;100817.84;;;14.27;69.25
62948;BME280;51940;52.126;-0.994;2022-07-29T03:56:32;100817.86;;;14.21;69.39
62948;BME280;51940;52.126;-0.994;2022-07-29T03:59:01;100816.38;;;14.17;69.57
62948;BME280;51940;52.126;-0.994;2022-07-29T04:01:28;100818.20;;;14.10;69.61
62948;BME280;51940;52.126;-0.994;2022-07-29T04:03:55;100820.60;;;14.02;70.09
62948;BME280;51940;52.126;-0.994;2022-07-29T04:06:21;100826.79;;;13.93;70.36
62948;BME280;51940;52.126;-0.994;2022-07-29T04:08:46;100833.27;;;13.87;70.60
62948;BME280;51940;52.126;-0.994;2022-07-29T04:11:12;100836.10;;;13.82;70.78
62948;BME280;51940;52.126;-0.994;2022-07-29T04:13:38;100832.54;;;13.81;70.83
62948;BME280;51940;52.126;-0.994;2022-07-29T04:16:03;100833.79;;;13.81;70.93
62948;BME280;51940;52.126;-0.994;2022-07-29T04:18:29;100831.71;;;13.85;70.73
62948;BME280;51940;52.126;-0.994;2022-07-29T04:20:55;100830.34;;;13.95;70.45
62948;BME280;51940;52.126;-0.994;2022-07-29T04:23:20;100826.17;;;14.02;70.34
62948;BME280;51940;52.126;-0.994;2022-07-29T04:25:46;100827.44;;;14.07;70.13
62948;BME280;51940;52.126;-0.994;2022-07-29T04:28:11;100824.52;;;14.09;70.35
62948;BME280;51940;52.126;-0.994;2022-07-29T04:30:37;100827.24;;;14.14;70.05
62948;BME280;51940;52.126;-0.994;2022-07-29T04:33:05;100825.34;;;14.22;69.87
62948;BME280;51940;52.126;-0.994;2022-07-29T04:35:34;100818.85;;;14.29;69.57
62948;BME280;51940;52.126;-0.994;2022-07-29T04:37:59;100819.31;;;14.31;69.57
62948;BME280;51940;52.126;-0.994;2022-07-29T04:40:25;100826.31;;;14.26;69.92
62948;BME280;51940;52.126;-0.994;2022-07-29T04:42:50;100829.69;;;14.21;70.16
62948;BME280;51940;52.126;-0.994;2022-07-29T04:45:16;100831.67;;;14.21;70.30
62948;BME280;51940;52.126;-0.994;2022-07-29T04:47:42;100834.31;;;14.28;70.32
62948;BME280;51940;52.126;-0.994;2022-07-29T04:50:09;100832.58;;;14.37;69.93
62948;BME280;51940;52.126;-0.994;2022-07-29T04:52:34;100828.87;;;14.47;69.83
62948;BME280;51940;52.126;-0.994;2022-07-29T04:55:01;100829.79;;;14.51;69.85
62948;BME280;51940;52.126;-0.994;2022-07-29T04:57:27;100827.17;;;14.55;69.81
62948;BME280;51940;52.126;-0.994;2022-07-29T04:59:54;100830.64;;;14.58;69.75
62948;BME280;51940;52.126;-0.994;2022-07-29T05:02:20;100832.09;;;14.58;69.96
62948;BME280;51940;52.126;-0.994;2022-07-29T05:04:47;100828.83;;;14.70;69.59
62948;BME280;51940;52.126;-0.994;2022-07-29T05:07:13;100827.72;;;14.81;69.31
62948;BME280;51940;52.126;-0.994;2022-07-29T05:09:39;100828.05;;;14.87;69.13
62948;BME280;51940;52.126;-0.994;2022-07-29T05:12:05;100829.75;;;14.90;69.01
62948;BME280;51940;52.126;-0.994;2022-07-29T05:14:30;100832.73;;;14.91;69.06
62948;BME280;51940;52.126;-0.994;2022-07-29T05:16:56;100830.52;;;14.93;69.04
62948;BME280;51940;52.126;-0.994;2022-07-29T05:19:22;100832.06;;;14.95;69.01
62948;BME280;51940;52.126;-0.994;2022-07-29T05:21:48;100836.95;;;14.94;69.00
62948;BME280;51940;52.126;-0.994;2022-07-29T05:24:14;100839.36;;;14.92;68.96
62948;BME280;51940;52.126;-0.994;2022-07-29T05:26:40;100840.94;;;14.93;69.08
62948;BME280;51940;52.126;-0.994;2022-07-29T05:29:05;100838.83;;;15.02;68.95
62948;BME280;51940;52.126;-0.994;2022-07-29T05:31:31;100847.35;;;15.10;68.76
62948;BME280;51940;52.126;-0.994;2022-07-29T05:33:56;100848.54;;;15.17;68.68
62948;BME280;51940;52.126;-0.994;2022-07-29T05:36:22;100849.46;;;15.21;68.35
62948;BME280;51940;52.126;-0.994;2022-07-29T05:38:47;100849.79;;;15.23;68.43
62948;BME280;51940;52.126;-0.994;2022-07-29T05:41:13;100849.70;;;15.30;68.37
62948;BME280;51940;52.126;-0.994;2022-07-29T05:43:39;100850.21;;;15.40;68.20
62948;BME280;51940;52.126;-0.994;2022-07-29T05:46:04;100850.35;;;15.51;68.03
62948;BME280;51940;52.126;-0.994;2022-07-29T05:48:30;100853.17;;;15.58;67.87
62948;BME280;51940;52.126;-0.994;2022-07-29T05:50:55;100853.76;;;15.67;67.76
62948;BME280;51940;52.126;-0.994;2022-07-29T05:53:21;100851.44;;;15.80;67.48
62948;BME280;51940;52.126;-0.994;2022-07-29T05:55:47;100854.83;;;15.91;67.14
62948;BME280;51940;52.126;-0.994;2022-07-29T05:58:13;100851.38;;;16.00;66.95
62948;BME280;51940;52.126;-0.994;2022-07-29T06:00:39;100856.23;;;16.18;66.69
62948;BME280;51940;52.126;-0.994;2022-07-29T06:03:05;100860.20;;;16.41;66.26
62948;BME280;51940;52.126;-0.994;2022-07-29T06:05:30;100857.35;;;16.80;65.42
62948;BME280;51940;52.126;-0.994;2022-07-29T06:07:56;100858.80;;;17.01;64.74
62948;BME280;51940;52.126;-0.994;2022-07-29T06:10:21;100856.33;;;17.16;64.40
62948;BME280;51940;52.126;-0.994;2022-07-29T06:12:47;100857.48;;;17.30;63.92
62948;BME280;51940;52.126;-0.994;2022-07-29T06:15:12;100860.32;;;17.52;63.49
62948;BME280;51940;52.126;-0.994;2022-07-29T06:17:38;100865.61;;;17.63;62.98
62948;BME280;51940;52.126;-0.994;2022-07-29T06:20:03;100861.58;;;17.64;62.86
62948;BME280;51940;52.126;-0.994;2022-07-29T06:22:29;100858.67;;;17.68;62.79
62948;BME280;51940;52.126;-0.994;2022-07-29T06:24:55;100851.13;;;17.87;62.53
62948;BME280;51940;52.126;-0.994;2022-07-29T06:27:20;100848.94;;;18.29;61.71
62948;BME280;51940;52.126;-0.994;2022-07-29T06:29:46;100849.52;;;19.28;59.83
62948;BME280;51940;52.126;-0.994;2022-07-29T06:32:11;100850.57;;;20.41;57.31
62948;BME280;51940;52.126;-0.994;2022-07-29T06:34:37;100848.98;;;21.10;55.97
62948;BME280;51940;52.126;-0.994;2022-07-29T06:37:08;100844.05;;;23.05;52.54
62948;BME280;51940;52.126;-0.994;2022-07-29T06:39:35;100848.84;;;24.76;49.26
62948;BME280;51940;52.126;-0.994;2022-07-29T06:42:02;100852.64;;;26.13;46.16
62948;BME280;51940;52.126;-0.994;2022-07-29T06:44:27;100851.36;;;27.01;43.09
62948;BME280;51940;52.126;-0.994;2022-07-29T06:46:53;100852.73;;;27.44;42.38
62948;BME280;51940;52.126;-0.994;2022-07-29T06:49:19;100853.30;;;28.02;41.05
62948;BME280;51940;52.126;-0.994;2022-07-29T06:51:45;100858.54;;;28.50;39.95
62948;BME280;51940;52.126;-0.994;2022-07-29T06:54:11;100853.09;;;29.12;39.08
62948;BME280;51940;52.126;-0.994;2022-07-29T06:56:37;100860.85;;;29.86;37.95
62948;BME280;51940;52.126;-0.994;2022-07-29T06:59:03;100857.81;;;30.41;36.51
62948;BME280;51940;52.126;-0.994;2022-07-29T07:01:29;100856.62;;;30.91;35.63
62948;BME280;51940;52.126;-0.994;2022-07-29T07:03:55;100859.80;;;31.21;34.93
62948;BME280;51940;52.126;-0.994;2022-07-29T07:06:21;100863.73;;;30.70;34.63
62948;BME280;51940;52.126;-0.994;2022-07-29T07:08:46;100867.34;;;29.55;35.87
62948;BME280;51940;52.126;-0.994;2022-07-29T07:11:12;100867.00;;;28.31;37.20
62948;BME280;51940;52.126;-0.994;2022-07-29T07:13:40;100865.38;;;27.04;39.16
62948;BME280;51940;52.126;-0.994;2022-07-29T07:16:06;100866.63;;;26.21;40.22
62948;BME280;51940;52.126;-0.994;2022-07-29T07:18:31;100868.41;;;25.74;41.22
62948;BME280;51940;52.126;-0.994;2022-07-29T07:20:57;100868.99;;;25.34;42.19
62948;BME280;51940;52.126;-0.994;2022-07-29T07:23:23;100869.29;;;25.07;43.28
62948;BME280;51940;52.126;-0.994;2022-07-29T07:25:49;100874.10;;;24.87;43.51
62948;BME280;51940;52.126;-0.994;2022-07-29T07:28:15;100881.67;;;24.52;44.20
62948;BME280;51940;52.126;-0.994;2022-07-29T07:30:40;100876.85;;;24.36;44.90
62948;BME280;51940;52.126;-0.994;2022-07-29T07:33:06;100877.31;;;24.37;44.84
62948;BME280;51940;52.126;-0.994;2022-07-29T07:35:31;100879.66;;;24.35;44.98
62948;BME280;51940;52.126;-0.994;2022-07-29T07:37:57;100876.48;;;24.16;45.51
62948;BME280;51940;52.126;-0.994;2022-07-29T07:40:23;100876.94;;;24.09;45.84
62948;BME280;51940;52.126;-0.994;2022-07-29T07:42:48;100877.70;;;24.06;45.90
62948;BME280;51940;52.126;-0.994;2022-07-29T07:45:14;100875.85;;;24.00;46.20
62948;BME280;51940;52.126;-0.994;2022-07-29T07:47:40;100876.45;;;23.94;46.53
62948;BME280;51940;52.126;-0.994;2022-07-29T07:50:09;100875.20;;;23.86;47.06
62948;BME280;51940;52.126;-0.994;2022-07-29T07:52:46;100874.48;;;23.93;47.04
62948;BME280;51940;52.126;-0.994;2022-07-29T07:55:13;100879.11;;;24.02;46.95
62948;BME280;51940;52.126;-0.994;2022-07-29T07:57:39;100879.61;;;23.96;47.09
62948;BME280;51940;52.126;-0.994;2022-07-29T08:00:05;100873.81;;;24.07;47.26
62948;BME280;51940;52.126;-0.994;2022-07-29T08:02:31;100871.66;;;24.25;46.78
62948;BME280;51940;52.126;-0.994;2022-07-29T08:04:57;100868.55;;;24.40;46.52
62948;BME280;51940;52.126;-0.994;2022-07-29T08:07:23;100871.49;;;24.49;46.44
62948;BME280;51940;52.126;-0.994;2022-07-29T08:09:48;100872.37;;;24.52;45.88
62948;BME280;51940;52.126;-0.994;2022-07-29T08:12:13;100875.95;;;24.63;45.79
62948;BME280;51940;52.126;-0.994;2022-07-29T08:14:39;100874.06;;;24.76;44.85
62948;BME280;51940;52.126;-0.994;2022-07-29T08:17:05;100872.70;;;24.72;43.35
62948;BME280;51940;52.126;-0.994;2022-07-29T08:19:31;100880.25;;;24.59;42.64
62948;BME280;51940;52.126;-0.994;2022-07-29T08:21:57;100875.94;;;24.23;43.30
62948;BME280;51940;52.126;-0.994;2022-07-29T08:24:22;100871.23;;;24.20;43.30
62948;BME280;51940;52.126;-0.994;2022-07-29T08:27:07;100871.13;;;24.42;42.55
62948;BME280;51940;52.126;-0.994;2022-07-29T08:29:34;100872.48;;;24.63;41.16
62948;BME280;51940;52.126;-0.994;2022-07-29T08:32:00;100870.80;;;24.80;42.24
62948;BME280;51940;52.126;-0.994;2022-07-29T08:34:26;100871.63;;;24.95;42.15
62948;BME280;51940;52.126;-0.994;2022-07-29T08:36:51;100872.57;;;24.95;41.96
62948;BME280;51940;52.126;-0.994;2022-07-29T08:39:17;100874.39;;;25.00;41.88
62948;BME280;51940;52.126;-0.994;2022-07-29T08:41:42;100876.85;;;24.99;41.78
62948;BME280;51940;52.126;-0.994;2022-07-29T08:44:09;100874.02;;;24.91;42.06
62948;BME280;51940;52.126;-0.994;2022-07-29T08:46:40;100875.44;;;24.77;42.36
62948;BME280;51940;52.126;-0.994;2022-07-29T08:49:09;100876.77;;;24.73;42.21
62948;BME280;51940;52.126;-0.994;2022-07-29T08:51:36;100875.73;;;24.75;41.60
62948;BME280;51940;52.126;-0.994;2022-07-29T08:54:02;100873.33;;;24.92;40.40
62948;BME280;51940;52.126;-0.994;2022-07-29T08:56:28;100869.48;;;24.92;40.28
62948;BME280;51940;52.126;-0.994;2022-07-29T08:58:54;100872.35;;;24.94;39.13
62948;BME280;51940;52.126;-0.994;2022-07-29T09:01:27;100874.73;;;24.74;39.51
62948;BME280;51940;52.126;-0.994;2022-07-29T09:03:59;100873.15;;;24.63;39.37
62948;BME280;51940;52.126;-0.994;2022-07-29T09:06:29;100872.71;;;24.53;40.00
62948;BME280;51940;52.126;-0.994;2022-07-29T09:08:59;100876.72;;;24.62;40.35
62948;BME280;51940;52.126;-0.994;2022-07-29T09:11:26;100874.35;;;24.72;40.55
62948;BME280;51940;52.126;-0.994;2022-07-29T09:13:51;100874.08;;;24.85;40.90
62948;BME280;51940;52.126;-0.994;2022-07-29T09:16:17;100872.72;;;25.10;40.85
62948;BME280;51940;52.126;-0.994;2022-07-29T09:18:45;100869.98;;;25.43;39.50
62948;BME280;51940;52.126;-0.994;2022-07-29T09:21:16;100869.93;;;25.39;38.81
62948;BME280;51940;52.126;-0.994;2022-07-29T09:26:29;100870.30;;;25.46;39.32
62948;BME280;51940;52.126;-0.994;2022-07-29T09:28:57;100867.66;;;25.49;38.51
62948;BME280;51940;52.126;-0.994;2022-07-29T09:31:33;100861.70;;;25.35;38.87
62948;BME280;51940;52.126;-0.994;2022-07-29T09:34:02;100861.54;;;25.22;38.24
62948;BME280;51940;52.126;-0.994;2022-07-29T09:36:28;100854.90;;;24.93;39.02
62948;BME280;51940;52.126;-0.994;2022-07-29T09:39:00;100853.07;;;25.00;40.27
62948;BME280;51940;52.126;-0.994;2022-07-29T09:41:29;100854.70;;;25.23;40.16
62948;BME280;51940;52.126;-0.994;2022-07-29T09:43:59;100857.41;;;25.41;39.21
62948;BME280;51940;52.126;-0.994;2022-07-29T09:46:25;100855.27;;;25.47;39.25
62948;BME280;51940;52.126;-0.994;2022-07-29T09:49:11;100856.51;;;25.61;38.88
62948;BME280;51940;52.126;-0.994;2022-07-29T09:51:38;100856.33;;;25.77;38.66
62948;BME280;51940;52.126;-0.994;2022-07-29T09:54:27;100851.94;;;25.93;38.32
62948;BME280;51940;52.126;-0.994;2022-07-29T09:56:54;100857.84;;;25.95;37.58
62948;BME280;51940;52.126;-0.994;2022-07-29T09:59:21;100851.65;;;25.80;38.09
62948;BME280;51940;52.126;-0.994;2022-07-29T10:01:58;100856.46;;;25.84;37.82
62948;BME280;51940;52.126;-0.994;2022-07-29T10:04:37;100855.16;;;25.82;37.47
62948;BME280;51940;52.126;-0.994;2022-07-29T10:07:09;100861.31;;;25.93;37.23
62948;BME280;51940;52.126;-0.994;2022-07-29T10:09:35;100857.62;;;26.02;37.35
62948;BME280;51940;52.126;-0.994;2022-07-29T10:12:12;100854.23;;;26.08;37.65
62948;BME280;51940;52.126;-0.994;2022-07-29T10:14:41;100855.20;;;26.02;37.71
62948;BME280;51940;52.126;-0.994;2022-07-29T10:17:09;100853.61;;;26.02;37.72
62948;BME280;51940;52.126;-0.994;2022-07-29T10:19:36;100855.02;;;26.11;38.32
62948;BME280;51940;52.126;-0.994;2022-07-29T10:22:09;100861.43;;;26.13;37.08
62948;BME280;51940;52.126;-0.994;2022-07-29T10:24:36;100861.69;;;25.85;36.75
62948;BME280;51940;52.126;-0.994;2022-07-29T10:27:07;100856.56;;;25.53;37.95
62948;BME280;51940;52.126;-0.994;2022-07-29T10:29:33;100858.59;;;25.44;38.48
62948;BME280;51940;52.126;-0.994;2022-07-29T10:32:30;100858.79;;;25.57;37.06
62948;BME280;51940;52.126;-0.994;2022-07-29T10:40:34;100852.17;;;25.88;38.38
62948;BME280;51940;52.126;-0.994;2022-07-29T10:43:32;100848.20;;;25.89;37.82
62948;BME280;51940;52.126;-0.994;2022-07-29T10:46:01;100852.73;;;25.99;38.43
62948;BME280;51940;52.126;-0.994;2022-07-29T10:48:28;100855.48;;;26.26;37.68
62948;BME280;51940;52.126;-0.994;2022-07-29T10:50:55;100857.84;;;26.37;37.17
62948;BME280;51940;52.126;-0.994;2022-07-29T10:53:25;100853.46;;;26.34;36.79
62948;BME280;51940;52.126;-0.994;2022-07-29T10:56:27;100853.91;;;26.20;36.95
62948;BME280;51940;52.126;-0.994;2022-07-29T11:01:45;100851.86;;;25.89;36.99
62948;BME280;51940;52.126;-0.994;2022-07-29T11:04:11;100851.52;;;25.89;36.63
62948;BME280;51940;52.126;-0.994;2022-07-29T11:09:31;100851.91;;;25.96;36.63
62948;BME280;51940;52.126;-0.994;2022-07-29T11:11:57;100851.11;;;25.97;37.14
62948;BME280;51940;52.126;-0.994;2022-07-29T11:15:00;100854.16;;;26.06;36.62
62948;BME280;51940;52.126;-0.994;2022-07-29T11:17:28;100847.85;;;26.01;36.57
62948;BME280;51940;52.126;-0.994;2022-07-29T11:22:58;100843.82;;;26.36;36.70
62948;BME280;51940;52.126;-0.994;2022-07-29T11:25:24;100847.06;;;26.41;36.53
62948;BME280;51940;52.126;-0.994;2022-07-29T11:27:51;100844.69;;;26.28;36.02
62948;BME280;51940;52.126;-0.994;2022-07-29T11:30:18;100848.99;;;26.06;35.90
62948;BME280;51940;52.126;-0.994;2022-07-29T11:32:44;100844.69;;;25.88;36.04
62948;BME280;51940;52.126;-0.994;2022-07-29T11:37:36;100841.81;;;25.73;36.27
62948;BME280;51940;52.126;-0.994;2022-07-29T11:45:00;100838.93;;;25.57;36.83
62948;BME280;51940;52.126;-0.994;2022-07-29T11:47:28;100835.05;;;25.71;37.16
62948;BME280;51940;52.126;-0.994;2022-07-29T11:49:59;100839.36;;;25.95;36.67
62948;BME280;51940;52.126;-0.994;2022-07-29T11:52:45;100837.88;;;25.95;36.05
62948;BME280;51940;52.126;-0.994;2022-07-29T11:55:15;100835.45;;;26.05;36.37
62948;BME280;51940;52.126;-0.994;2022-07-29T11:58:00;100833.75;;;26.05;36.07
62948;BME280;51940;52.126;-0.994;2022-07-29T12:00:29;100831.13;;;26.26;35.87
62948;BME280;51940;52.126;-0.994;2022-07-29T12:02:57;100822.19;;;26.46;35.70
62948;BME280;51940;52.126;-0.994;2022-07-29T12:05:32;100816.48;;;26.59;35.96
62948;BME280;51940;52.126;-0.994;2022-07-29T12:08:14;100817.83;;;26.82;35.40
62948;BME280;51940;52.126;-0.994;2022-07-29T12:10:42;100817.43;;;26.86;34.95
62948;BME280;51940;52.126;-0.994;2022-07-29T12:13:09;100820.77;;;26.73;35.11
62948;BME280;51940;52.126;-0.994;2022-07-29T12:15:35;100819.12;;;26.65;34.45
62948;BME280;51940;52.126;-0.994;2022-07-29T12:18:30;100816.82;;;26.47;34.76
62948;BME280;51940;52.126;-0.994;2022-07-29T12:20:56;100818.59;;;26.07;35.01
62948;BME280;51940;52.126;-0.994;2022-07-29T12:23:22;100810.20;;;25.82;35.43
62948;BME280;51940;52.126;-0.994;2022-07-29T12:25:48;100806.64;;;25.52;36.15
62948;BME280;51940;52.126;-0.994;2022-07-29T12:28:14;100802.23;;;25.43;36.37
62948;BME280;51940;52.126;-0.994;2022-07-29T12:30:46;100796.64;;;25.51;36.37
62948;BME280;51940;52.126;-0.994;2022-07-29T12:33:17;100797.77;;;25.76;36.05
62948;BME280;51940;52.126;-0.994;2022-07-29T12:35:55;100795.98;;;25.96;35.92
62948;BME280;51940;52.126;-0.994;2022-07-29T12:38:21;100786.06;;;26.20;36.21
62948;BME280;51940;52.126;-0.994;2022-07-29T12:40:48;100791.90;;;26.45;35.20
62948;BME280;51940;52.126;-0.994;2022-07-29T12:43:22;100789.73;;;26.55;35.04
62948;BME280;51940;52.126;-0.994;2022-07-29T12:45:50;100793.46;;;26.63;34.60
62948;BME280;51940;52.126;-0.994;2022-07-29T12:48:17;100790.71;;;26.61;34.69
62948;BME280;51940;52.126;-0.994;2022-07-29T12:50:57;100786.41;;;26.62;34.43
62948;BME280;51940;52.126;-0.994;2022-07-29T12:53:23;100782.89;;;26.45;34.35
62948;BME280;51940;52.126;-0.994;2022-07-29T12:55:51;100781.51;;;26.38;34.45
62948;BME280;51940;52.126;-0.994;2022-07-29T12:58:36;100781.63;;;26.23;34.13
62948;BME280;51940;52.126;-0.994;2022-07-29T13:01:09;100790.88;;;26.02;34.28
62948;BME280;51940;52.126;-0.994;2022-07-29T13:03:56;100793.17;;;25.85;34.50
62948;BME280;51940;52.126;-0.994;2022-07-29T13:09:10;100793.85;;;25.81;34.95
62948;BME280;51940;52.126;-0.994;2022-07-29T13:11:42;100794.86;;;25.73;35.28
62948;BME280;51940;52.126;-0.994;2022-07-29T13:14:10;100797.96;;;25.69;35.60
62948;BME280;51940;52.126;-0.994;2022-07-29T13:16:37;100794.60;;;25.67;35.43
62948;BME280;51940;52.126;-0.994;2022-07-29T13:19:41;100797.23;;;25.62;35.57
62948;BME280;51940;52.126;-0.994;2022-07-29T13:22:09;100799.45;;;25.55;35.70
62948;BME280;51940;52.126;-0.994;2022-07-29T13:24:54;100801.77;;;25.55;35.76
62948;BME280;51940;52.126;-0.994;2022-07-29T13:27:29;100801.25;;;25.57;36.04